Time;durP1;ratioP1;P1;durP2;ratioP2;P2;SDS_P1;SDS_P2;PMS_P1;PMS_P2;Temp;Humidity;BMP_temperature;BMP_pressure;BME280_temperature;BME280_humidity;BME280_pressure;Samples;Min_cycle;Max_cycle;Signal;HPM_P1;HPM_P2
2022/01/03 05:31:16;;;;;;;;;1.75;0.00;;;;;12.52;68.60;101409.81;1431444;26;46195;-76
2022/01/03 05:33:42;;;;;;;;;3.25;2.00;;;;;12.52;68.70;101426.84;5057074;28;45338;-75
2022/01/03 05:36:07;;;;;;;;;3.00;2.00;;;;;12.58;68.69;101435.59;5056874;28;45478;-76
2022/01/03 05:38:33;;;;;;;;;4.50;2.50;;;;;12.62;68.93;101445.25;5056161;28;46580;-74
2022/01/03 05:40:58;;;;;;;;;4.00;1.75;;;;;12.59;68.92;101437.34;5056192;28;45269;-75
2022/01/03 05:43:23;;;;;;;;;3.75;2.75;;;;;12.56;68.90;101446.41;5056264;28;45301;-75
2022/01/03 05:45:49;;;;;;;;;7.25;2.25;;;;;12.57;69.32;101439.22;5056153;28;45359;-75
2022/01/03 05:48:14;;;;;;;;;2.00;2.00;;;;;12.56;68.84;101421.34;5056328;28;45425;-76
2022/01/03 05:50:40;;;;;;;;;5.75;2.50;;;;;12.60;68.73;101433.69;5056173;28;45286;-75
2022/01/03 05:53:05;;;;;;;;;6.00;2.00;;;;;12.69;68.51;101435.97;5056105;28;45318;-75
2022/01/03 05:55:30;;;;;;;;;1.75;1.00;;;;;12.65;68.94;101424.50;5044706;28;46832;-75
2022/01/03 05:57:56;;;;;;;;;4.00;1.00;;;;;12.60;68.57;101420.25;5053235;28;45424;-75
2022/01/03 06:00:24;;;;;;;;;4.00;1.00;;;;;12.62;68.98;101439.88;5054942;28;45450;-76
2022/01/03 06:02:54;;;;;;;;;5.25;2.00;;;;;12.61;69.02;101432.75;5057175;28;45306;-76
2022/01/03 06:05:32;;;;;;;;;4.00;1.00;;;;;12.68;68.60;101442.31;5056530;28;45234;-75
2022/01/03 06:07:58;;;;;;;;;3.75;1.25;;;;;12.64;68.57;101446.09;5056139;28;46677;-76
2022/01/03 06:10:24;;;;;;;;;2.50;1.25;;;;;12.58;68.88;101440.97;5057246;28;45306;-77
2022/01/03 06:12:49;;;;;;;;;3.50;1.00;;;;;12.36;69.62;101403.34;5056544;28;45396;-75
2022/01/03 06:15:15;;;;;;;;;2.50;1.00;;;;;12.43;69.19;101426.34;5056307;28;45459;-76
2022/01/03 06:17:42;;;;;;;;;3.75;1.75;;;;;12.49;69.08;101428.78;5055752;28;45583;-75
2022/01/03 06:20:09;;;;;;;;;3.00;1.00;;;;;12.57;69.54;101436.53;5055956;28;45366;-74
2022/01/03 06:22:34;;;;;;;;;4.25;2.00;;;;;12.59;69.31;101437.34;5052474;28;45197;-74
2022/01/03 06:25:00;;;;;;;;;5.75;2.00;;;;;12.48;69.37;101432.41;5035946;28;45353;-76
2022/01/03 06:27:25;;;;;;;;;2.50;1.25;;;;;12.52;68.97;101434.91;5035720;28;45378;-73
2022/01/03 06:29:50;;;;;;;;;3.75;1.00;;;;;12.55;69.12;101431.22;5036082;28;45390;-76
2022/01/03 06:32:16;;;;;;;;;4.25;2.00;;;;;12.57;69.14;101433.84;5036998;28;45636;-76
2022/01/03 06:34:41;;;;;;;;;2.00;1.00;;;;;12.52;69.09;101420.56;5035987;28;45559;-75
2022/01/03 06:37:07;;;;;;;;;6.25;2.00;;;;;12.46;69.55;101410.09;5035614;28;46017;-73
2022/01/03 06:39:32;;;;;;;;;7.75;1.50;;;;;12.59;69.27;101427.44;5035770;28;45353;-75
2022/01/03 06:41:58;;;;;;;;;5.25;2.00;;;;;12.60;69.14;101421.13;5035838;28;45164;-75
2022/01/03 06:44:23;;;;;;;;;4.00;0.75;;;;;12.61;68.96;101417.50;5037438;28;45532;-75
2022/01/03 06:46:48;;;;;;;;;3.75;1.75;;;;;12.42;69.34;101395.88;5036979;28;46071;-75
2022/01/03 06:49:14;;;;;;;;;2.50;1.00;;;;;12.56;68.98;101414.13;5036403;28;45392;-77
2022/01/03 06:51:41;;;;;;;;;2.00;2.00;;;;;12.58;69.40;101409.56;5041245;28;45411;-75
2022/01/03 06:54:10;;;;;;;;;3.75;0.75;;;;;12.54;69.27;101415.13;5054905;28;45482;-75
2022/01/03 06:56:36;;;;;;;;;5.00;1.00;;;;;12.47;69.17;101401.09;5035703;28;46134;-74
2022/01/03 06:59:02;;;;;;;;;2.00;1.00;;;;;12.58;69.26;101412.25;5034990;28;45411;-74
2022/01/03 07:01:27;;;;;;;;;3.50;2.00;;;;;12.50;69.36;101407.19;5053308;28;45263;-74
2022/01/03 07:03:52;;;;;;;;;6.00;3.75;;;;;12.41;69.66;101401.34;5054459;28;45514;-75
2022/01/03 07:06:18;;;;;;;;;2.75;1.00;;;;;12.36;70.03;101396.16;5054842;28;45421;-74
2022/01/03 07:08:43;;;;;;;;;2.50;1.00;;;;;12.48;70.05;101406.41;5055327;28;45598;-74
2022/01/03 07:11:08;;;;;;;;;7.50;1.75;;;;;12.45;69.60;101382.31;5055331;28;45444;-73
2022/01/03 07:13:43;;;;;;;;;7.00;1.75;;;;;12.49;69.49;101388.44;5055153;28;45539;-73
2022/01/03 07:19:05;;;;;;;;;3.50;2.00;;;;;12.52;69.48;101391.88;5039740;28;45370;-73
2022/01/03 07:21:32;;;;;;;;;5.25;2.00;;;;;12.55;69.64;101388.19;5051064;28;45342;-73
2022/01/03 07:23:59;;;;;;;;;2.75;2.00;;;;;12.45;69.65;101381.44;5035232;28;45415;-73
2022/01/03 07:26:25;;;;;;;;;11.00;2.00;;;;;12.32;69.38;101351.53;5044365;28;46297;-72
2022/01/03 07:28:51;;;;;;;;;6.50;2.25;;;;;12.45;69.80;101381.44;5046361;28;45587;-74
2022/01/03 07:31:17;;;;;;;;;3.00;1.00;;;;;12.52;69.42;101391.00;5041715;28;45377;-73
2022/01/03 07:33:43;;;;;;;;;5.75;1.00;;;;;12.43;69.84;101372.56;5032786;28;45340;-73
2022/01/03 07:36:09;;;;;;;;;3.00;2.00;;;;;12.57;69.36;101390.81;5033045;28;46111;-73
2022/01/03 07:38:35;;;;;;;;;2.00;2.00;;;;;12.59;69.30;101381.72;5032567;28;45372;-73
2022/01/03 07:41:00;;;;;;;;;9.50;2.00;;;;;12.57;69.82;101386.31;5033147;28;45532;-73
2022/01/03 07:43:26;;;;;;;;;3.75;2.00;;;;;12.47;70.28;101376.88;5032568;28;46034;-75
2022/01/03 07:45:51;;;;;;;;;2.50;2.50;;;;;12.45;70.19;101378.75;5032927;28;46102;-74
2022/01/03 07:48:17;;;;;;;;;10.50;2.00;;;;;12.44;70.02;101379.69;5032541;28;45330;-74
2022/01/03 07:50:42;;;;;;;;;5.00;2.75;;;;;12.49;69.72;101375.88;5031294;28;45435;-75
2022/01/03 07:53:07;;;;;;;;;4.25;1.50;;;;;12.48;70.00;101366.06;5049531;28;45408;-74
2022/01/03 07:55:33;;;;;;;;;2.75;2.00;;;;;12.50;70.08;101371.38;5040671;28;46188;-74
2022/01/03 07:57:59;;;;;;;;;5.50;2.25;;;;;12.29;70.56;101354.34;5032645;28;45375;-73
2022/01/03 08:00:24;;;;;;;;;8.75;3.00;;;;;12.45;70.21;101373.38;5032733;28;45272;-73
2022/01/03 08:02:50;;;;;;;;;7.50;3.00;;;;;12.42;70.13;101370.81;5032269;28;45580;-75
2022/01/03 08:05:16;;;;;;;;;2.00;1.00;;;;;12.43;70.11;101364.50;5041960;28;47105;-74
2022/01/03 08:07:43;;;;;;;;;3.75;2.00;;;;;12.43;69.86;101345.66;5051893;28;45653;-74
2022/01/03 08:10:10;;;;;;;;;7.25;2.00;;;;;12.45;70.25;101360.81;5048634;28;45475;-75
2022/01/03 08:12:37;;;;;;;;;9.50;1.50;;;;;12.47;70.43;101360.75;5052367;28;45375;-75
2022/01/03 08:15:03;;;;;;;;;4.00;1.75;;;;;12.50;70.38;101358.78;5054912;28;45392;-74
2022/01/03 08:17:29;;;;;;;;;5.25;1.25;;;;;12.49;70.55;101356.19;5055685;28;45377;-73
2022/01/03 08:19:54;;;;;;;;;4.25;2.00;;;;;12.47;70.03;101364.31;5055923;28;45984;-73
2022/01/03 08:22:19;;;;;;;;;8.50;2.75;;;;;12.44;70.13;101359.06;5053622;28;45344;-76
2022/01/03 08:24:45;;;;;;;;;2.00;2.00;;;;;12.50;70.56;101366.84;5045291;28;46059;-74
2022/01/03 08:27:11;;;;;;;;;13.50;2.75;;;;;12.43;70.77;101356.44;5034613;28;45271;-74
2022/01/03 08:29:37;;;;;;;;;2.00;2.00;;;;;12.28;70.66;101319.47;5033284;28;45539;-75
2022/01/03 08:32:03;;;;;;;;;5.50;2.00;;;;;12.45;70.66;101350.06;5061428;28;45524;-74
2022/01/03 08:34:28;;;;;;;;;5.00;2.00;;;;;12.45;70.38;101341.97;5035436;28;45463;-75
2022/01/03 08:36:54;;;;;;;;;8.25;2.25;;;;;12.57;70.60;101353.16;5035405;28;45398;-78
2022/01/03 08:39:19;;;;;;;;;6.50;2.75;;;;;12.33;70.42;101306.72;5035142;28;45488;-77
2022/01/03 08:41:45;;;;;;;;;3.00;1.00;;;;;12.50;70.58;101331.03;5052383;28;45404;-74
2022/01/03 08:44:10;;;;;;;;;3.00;2.00;;;;;12.59;70.24;101343.19;5036176;28;45708;-76
2022/01/03 08:46:36;;;;;;;;;10.50;1.00;;;;;12.57;70.08;101345.09;5051779;28;45464;-74
2022/01/03 08:49:02;;;;;;;;;4.00;2.00;;;;;12.60;70.88;101337.72;5043703;28;45536;-73
2022/01/03 08:51:27;;;;;;;;;6.50;4.25;;;;;12.66;70.11;101345.53;5036592;28;45544;-76
2022/01/03 08:53:53;;;;;;;;;5.50;3.25;;;;;12.70;70.09;101335.50;5053946;28;45434;-75
2022/01/03 08:56:19;;;;;;;;;3.00;2.00;;;;;12.62;70.51;101325.09;5036616;28;45450;-75
2022/01/03 08:58:45;;;;;;;;;5.50;3.00;;;;;12.61;70.69;101339.47;5034615;28;45548;-76
2022/01/03 09:01:10;;;;;;;;;1.00;1.00;;;;;12.51;70.99;101316.63;5051680;28;45592;-77
2022/01/03 09:03:36;;;;;;;;;2.00;2.00;;;;;12.68;70.46;101332.00;5055647;28;45936;-73
2022/01/03 09:06:02;;;;;;;;;9.00;3.00;;;;;12.55;70.53;101320.06;5055064;28;45294;-74
2022/01/03 09:08:27;;;;;;;;;7.50;3.75;;;;;12.65;70.66;101335.72;5054098;28;45454;-74
2022/01/03 09:10:53;;;;;;;;;5.00;2.00;;;;;12.60;70.73;101329.66;5055372;28;45547;-75
2022/01/03 09:13:20;;;;;;;;;4.00;1.00;;;;;12.69;70.93;101337.31;5055937;28;45398;-74
2022/01/03 09:15:48;;;;;;;;;2.00;2.00;;;;;12.71;71.07;101340.81;5054895;28;45402;-75
2022/01/03 09:18:18;;;;;;;;;6.75;3.00;;;;;12.67;70.60;101331.16;5055606;28;45357;-75
2022/01/03 09:20:44;;;;;;;;;6.75;2.00;;;;;12.68;70.79;101343.63;5055252;28;45425;-75
2022/01/03 09:23:23;;;;;;;;;2.00;1.00;;;;;12.58;70.77;101328.88;5055402;28;45417;-73
2022/01/03 09:28:51;;;;;;;;;3.25;2.25;;;;;12.66;70.82;101336.59;5055095;28;45354;-75
2022/01/03 09:31:24;;;;;;;;;3.00;2.00;;;;;12.73;70.80;101338.94;5065746;28;45374;-75
2022/01/03 09:33:51;;;;;;;;;5.75;1.75;;;;;12.78;70.65;101336.03;5036981;28;46020;-75
2022/01/03 09:36:16;;;;;;;;;3.50;3.00;;;;;12.79;70.78;101337.78;5046584;28;45477;-74
2022/01/03 09:38:42;;;;;;;;;4.00;2.75;;;;;12.84;70.64;101327.69;5056117;28;45437;-75
2022/01/03 09:41:08;;;;;;;;;3.00;1.25;;;;;12.83;70.26;101310.69;5053791;28;45803;-72
2022/01/03 09:43:47;;;;;;;;;3.00;1.50;;;;;12.79;70.38;101294.72;5055447;28;45438;-74
2022/01/03 09:46:18;;;;;;;;;4.00;1.25;;;;;12.76;70.24;101309.19;5053160;28;45674;-82
2022/01/03 09:48:45;;;;;;;;;5.00;2.75;;;;;12.77;70.31;101324.38;5053486;28;45583;-74
2022/01/03 09:51:11;;;;;;;;;3.50;3.00;;;;;12.76;70.39;101319.09;5054401;28;45322;-75
2022/01/03 09:53:39;;;;;;;;;7.00;3.50;;;;;12.80;70.53;101334.16;5054057;28;47161;-76
2022/01/03 09:56:05;;;;;;;;;4.50;1.00;;;;;12.75;70.65;101336.19;5039112;28;45482;-75
2022/01/03 09:58:32;;;;;;;;;1.00;1.00;;;;;12.68;71.01;101335.56;5034842;28;45336;-75
2022/01/03 10:00:57;;;;;;;;;5.75;2.75;;;;;12.76;71.02;101332.56;5035199;28;45559;-76
2022/01/03 10:03:23;;;;;;;;;2.00;2.00;;;;;12.76;70.37;101314.56;5034336;28;45746;-74
2022/01/03 10:05:48;;;;;;;;;1.00;1.00;;;;;12.83;70.61;101326.81;5034103;28;45338;-74
2022/01/03 10:08:14;;;;;;;;;6.75;1.75;;;;;12.90;70.24;101324.72;5034960;28;45370;-75
2022/01/03 10:10:40;;;;;;;;;5.50;2.25;;;;;12.93;69.76;101331.78;5034282;28;45255;-73
2022/01/03 10:13:07;;;;;;;;;6.25;2.00;;;;;12.92;70.32;101317.44;5054450;28;45499;-71
2022/01/03 10:15:33;;;;;;;;;4.00;1.00;;;;;12.96;70.05;101324.41;5054690;28;45507;-70
2022/01/03 10:17:59;;;;;;;;;2.50;1.75;;;;;12.98;69.81;101321.66;5054634;28;45790;-73
2022/01/03 10:20:27;;;;;;;;;5.00;2.75;;;;;12.84;70.32;101316.94;5053837;28;45278;-76
2022/01/03 10:23:08;;;;;;;;;2.25;2.00;;;;;12.85;70.28;101303.38;5054319;28;46182;-72
2022/01/03 10:25:34;;;;;;;;;4.75;2.00;;;;;12.88;70.25;101313.13;5053878;28;45426;-72
2022/01/03 10:28:00;;;;;;;;;2.75;2.00;;;;;12.83;70.58;101297.22;5054076;28;45504;-76
2022/01/03 10:30:33;;;;;;;;;4.25;2.00;;;;;12.93;70.14;101312.94;5056778;28;45471;-76
2022/01/03 10:32:58;;;;;;;;;4.75;1.00;;;;;12.85;69.98;101287.25;5049287;27;46661;-72
2022/01/03 10:35:25;;;;;;;;;5.50;1.50;;;;;12.93;69.94;101302.19;5051320;28;45840;-76
2022/01/03 10:37:50;;;;;;;;;2.50;1.00;;;;;12.85;70.02;101278.28;5052949;28;45554;-74
2022/01/03 10:40:19;;;;;;;;;3.25;3.00;;;;;12.87;70.34;101288.03;5054211;28;45371;-72
2022/01/03 10:42:46;;;;;;;;;1.25;1.25;;;;;12.89;70.16;101285.28;5053598;28;46010;-71
2022/01/03 10:45:11;;;;;;;;;4.50;1.00;;;;;12.92;70.01;101274.41;5053855;28;45397;-73
2022/01/03 10:47:37;;;;;;;;;2.00;2.00;;;;;13.07;69.55;101265.59;5043229;28;45313;-76
2022/01/03 10:50:14;;;;;;;;;5.00;2.00;;;;;12.95;69.47;101247.31;5053180;28;46039;-73
2022/01/03 10:52:40;;;;;;;;;5.00;1.00;;;;;13.03;69.62;101247.81;5053531;28;45381;-71
2022/01/03 10:55:33;;;;;;;;;9.00;2.50;;;;;13.01;69.27;101259.63;5046510;28;45426;-74
2022/01/03 10:58:02;;;;;;;;;4.50;1.75;;;;;13.07;69.38;101249.44;5033666;28;45366;-73
2022/01/03 11:00:37;;;;;;;;;4.75;1.00;;;;;12.94;69.83;101233.94;5032937;28;45667;-76
2022/01/03 11:05:57;;;;;;;;;2.00;1.25;;;;;12.91;69.25;101201.81;5038039;28;45473;-75
2022/01/03 11:11:13;;;;;;;;;4.00;3.25;;;;;13.15;69.00;101228.44;5038767;28;45290;-75
2022/01/03 11:13:41;;;;;;;;;1.25;0.00;;;;;12.99;69.37;101216.63;5032415;28;46165;-76
2022/01/03 11:16:08;;;;;;;;;3.75;1.00;;;;;12.95;69.41;101208.75;5035799;28;45934;-77
2022/01/03 11:18:38;;;;;;;;;4.25;2.00;;;;;13.14;69.42;101239.28;5046457;28;45255;-73
2022/01/03 11:21:03;;;;;;;;;4.50;3.00;;;;;13.12;69.10;101223.16;5039088;28;47078;-74
2022/01/03 11:23:29;;;;;;;;;2.00;1.00;;;;;13.19;68.53;101213.84;5053240;28;45556;-73
2022/01/03 11:25:54;;;;;;;;;9.50;2.00;;;;;13.30;68.62;101205.25;5053323;28;45330;-75
2022/01/03 11:28:26;;;;;;;;;4.75;2.00;;;;;13.36;68.16;101193.28;5053270;28;45540;-72
2022/01/03 11:30:53;;;;;;;;;1.75;1.50;;;;;13.50;67.71;101201.56;5043979;28;45421;-73
2022/01/03 11:33:20;;;;;;;;;3.50;2.00;;;;;13.58;67.98;101210.13;5048114;28;46106;-73
2022/01/03 11:35:48;;;;;;;;;3.50;2.00;;;;;13.39;68.24;101175.16;5052593;28;45421;-75
2022/01/03 11:38:18;;;;;;;;;4.50;2.50;;;;;13.41;68.01;101185.88;5052773;28;45321;-77
2022/01/03 11:40:44;;;;;;;;;9.00;2.50;;;;;13.34;68.21;101162.91;5052845;28;45479;-75
2022/01/03 11:43:10;;;;;;;;;5.75;1.25;;;;;13.44;67.83;101173.09;5052794;28;45714;-73
2022/01/03 11:45:36;;;;;;;;;4.50;3.00;;;;;13.49;68.15;101183.66;5053176;28;45373;-75
2022/01/03 11:48:02;;;;;;;;;3.00;3.00;;;;;13.53;67.71;101178.03;5052875;28;45606;-75
2022/01/03 11:50:28;;;;;;;;;5.75;3.00;;;;;13.58;67.75;101170.59;5051592;28;45512;-78
2022/01/03 11:52:54;;;;;;;;;4.75;2.00;;;;;13.38;67.52;101138.41;5036870;28;45481;-74
2022/01/03 11:55:24;;;;;;;;;4.00;3.00;;;;;13.39;67.51;101142.84;5031288;28;45733;-73
2022/01/03 12:05:57;;;;;;;;;6.75;2.00;;;;;13.65;67.04;101163.06;5032500;28;45452;-74
2022/01/03 12:08:33;;;;;;;;;3.75;2.25;;;;;13.59;67.15;101149.91;5032740;28;45421;-74
2022/01/03 12:11:00;;;;;;;;;3.75;2.75;;;;;13.62;67.45;101145.22;5032707;28;45653;-74
2022/01/03 12:13:49;;;;;;;;;5.75;2.50;;;;;13.54;67.46;101154.66;5032418;28;46511;-75
2022/01/03 12:16:15;;;;;;;;;8.75;2.00;;;;;13.54;67.29;101135.78;5032554;28;45322;-74
2022/01/03 12:18:57;;;;;;;;;5.25;2.00;;;;;13.61;67.47;101115.66;5032626;28;45768;-75
2022/01/03 12:21:50;;;;;;;;;5.25;1.50;;;;;13.79;66.74;101121.91;5031953;28;45212;-76
2022/01/03 12:24:27;;;;;;;;;4.25;1.25;;;;;13.95;65.96;101099.44;5032053;28;46094;-75
2022/01/03 12:27:14;;;;;;;;;6.25;2.25;;;;;14.02;65.69;101117.06;5030902;28;45838;-77
2022/01/03 12:29:55;;;;;;;;;6.25;2.25;;;;;14.10;65.50;101103.16;5032500;28;45550;-76
2022/01/03 12:32:23;;;;;;;;;3.75;2.50;;;;;14.06;65.24;101084.50;5031587;28;45602;-75
2022/01/03 12:35:10;;;;;;;;;3.00;2.00;;;;;14.11;64.89;101068.97;5031288;28;46084;-78
2022/01/03 12:37:44;;;;;;;;;5.00;1.50;;;;;14.26;64.94;101077.06;5030269;28;45639;-75
2022/01/03 12:40:14;;;;;;;;;7.50;2.00;;;;;14.28;64.48;101068.91;5030683;28;45461;-76
2022/01/03 12:42:48;;;;;;;;;6.00;2.00;;;;;14.32;64.46;101067.75;5031200;28;45650;-76
2022/01/03 12:45:29;;;;;;;;;2.50;1.50;;;;;14.30;64.11;101081.31;5029609;28;46907;-74
2022/01/03 12:47:55;;;;;;;;;2.00;2.00;;;;;14.26;64.17;101071.69;5030777;28;45419;-75
2022/01/03 12:50:28;;;;;;;;;3.50;2.00;;;;;14.33;64.66;101070.38;5031727;28;45369;-75
2022/01/03 12:52:57;;;;;;;;;9.50;1.00;;;;;14.33;64.44;101056.00;5029335;28;45352;-75
2022/01/03 12:55:37;;;;;;;;;4.00;1.00;;;;;14.39;64.31;101040.38;5021686;28;46568;-75
2022/01/03 12:58:14;;;;;;;;;2.25;1.00;;;;;14.41;64.19;101043.00;5029762;28;45500;-73
2022/01/03 13:00:50;;;;;;;;;4.50;1.75;;;;;14.35;64.77;101040.63;5032855;28;45383;-75
2022/01/03 13:03:18;;;;;;;;;3.75;2.00;;;;;14.33;64.36;101038.00;5035622;28;45365;-75
2022/01/03 13:06:26;;;;;;;;;4.00;2.00;;;;;14.29;64.60;101025.63;5034998;28;46136;-76
2022/01/03 13:08:52;;;;;;;;;9.00;1.00;;;;;14.22;64.84;101028.78;5035205;28;45485;-73
2022/01/03 13:11:19;;;;;;;;;1.50;1.50;;;;;14.28;64.96;101023.06;5035798;28;45309;-75
2022/01/03 13:13:48;;;;;;;;;6.75;2.50;;;;;14.23;64.70;101017.91;5035262;28;45370;-77
2022/01/03 13:16:29;;;;;;;;;4.00;3.00;;;;;14.20;65.29;101018.09;5033756;28;48856;-74
2022/01/03 13:18:58;;;;;;;;;2.50;1.50;;;;;14.21;65.34;101011.72;5031567;28;45377;-76
2022/01/03 13:21:26;;;;;;;;;2.50;0.00;;;;;14.12;65.49;101000.63;5034996;28;45402;-74
2022/01/03 13:24:00;;;;;;;;;6.25;1.00;;;;;14.13;65.07;101035.56;5034398;28;45349;-75
2022/01/03 13:26:27;;;;;;;;;0.50;0.50;;;;;13.95;65.45;101005.09;5033980;28;47596;-75
2022/01/03 13:28:56;;;;;;;;;2.00;1.00;;;;;13.97;65.62;100994.22;5033727;28;45493;-76
2022/01/03 13:31:22;;;;;;;;;8.50;2.75;;;;;13.80;65.85;100986.22;5035317;28;45331;-74
2022/01/03 13:33:55;;;;;;;;;2.25;1.25;;;;;13.99;66.02;100995.91;5035215;28;45319;-76
2022/01/03 13:36:20;;;;;;;;;4.00;2.50;;;;;13.98;65.91;100988.75;5034968;28;45663;-74
2022/01/03 13:38:45;;;;;;;;;1.00;1.00;;;;;13.97;65.98;100981.63;5035141;28;45337;-73
2022/01/03 13:41:16;;;;;;;;;2.25;0.50;;;;;13.97;65.99;101005.88;5035052;28;45513;-75
2022/01/03 13:43:56;;;;;;;;;4.00;1.50;;;;;13.97;65.85;100978.06;5034750;28;45434;-74
2022/01/03 13:49:14;;;;;;;;;6.25;1.75;;;;;13.88;65.75;100965.97;5035201;28;45470;-73
2022/01/03 13:51:54;;;;;;;;;3.50;2.00;;;;;13.77;66.18;100949.56;5034117;28;45746;-77
2022/01/03 13:54:28;;;;;;;;;5.50;1.00;;;;;13.87;66.33;100952.56;5034639;28;45389;-75
2022/01/03 13:56:55;;;;;;;;;4.25;1.00;;;;;13.86;66.59;100957.13;5034503;28;45595;-75
2022/01/03 13:59:23;;;;;;;;;1.25;1.25;;;;;13.93;66.73;100953.13;5034379;28;45293;-75
2022/01/03 14:01:49;;;;;;;;;6.00;1.00;;;;;13.75;67.53;100931.72;5034271;28;45398;-76
2022/01/03 14:04:16;;;;;;;;;6.00;2.00;;;;;13.79;67.95;100927.88;5034251;28;45259;-74
2022/01/03 14:06:41;;;;;;;;;3.00;2.00;;;;;13.90;67.77;100942.50;5033757;28;45554;-74
2022/01/03 14:09:20;;;;;;;;;2.00;1.25;;;;;13.88;67.71;100941.72;5034231;28;45238;-75
2022/01/03 14:11:45;;;;;;;;;9.75;2.00;;;;;13.82;67.92;100916.94;5034195;28;45336;-75
2022/01/03 14:14:15;;;;;;;;;8.25;2.00;;;;;13.90;68.20;100920.94;5033977;28;45557;-75
2022/01/03 14:16:52;;;;;;;;;3.50;2.00;;;;;13.94;68.21;100927.03;5034722;28;45861;-74
2022/01/03 14:19:17;;;;;;;;;3.00;2.00;;;;;13.96;68.97;100925.97;5034078;28;45814;-74
2022/01/03 14:21:43;;;;;;;;;12.75;3.00;;;;;13.77;69.34;100900.19;5033942;28;45346;-73
2022/01/03 14:24:10;;;;;;;;;2.25;1.75;;;;;13.73;70.02;100904.00;5033734;28;45346;-73
2022/01/03 14:26:37;;;;;;;;;4.00;2.00;;;;;13.75;70.66;100921.81;5033872;28;45421;-74
2022/01/03 14:29:15;;;;;;;;;1.00;1.00;;;;;13.75;70.51;100910.16;5034079;28;45494;-76
2022/01/03 14:31:48;;;;;;;;;1.00;0.00;;;;;13.74;71.06;100901.22;5044991;28;45502;-74
2022/01/03 14:34:21;;;;;;;;;3.25;1.50;;;;;13.64;71.26;100910.75;5034018;28;45369;-73
2022/01/03 14:36:46;;;;;;;;;6.50;2.25;;;;;13.57;71.89;100895.91;5033544;28;45369;-75
2022/01/03 14:39:12;;;;;;;;;3.75;2.50;;;;;13.61;71.53;100886.69;5033575;28;45355;-74
2022/01/03 14:41:37;;;;;;;;;1.00;1.00;;;;;13.62;71.55;100885.72;5033920;28;45358;-74
2022/01/03 14:44:06;;;;;;;;;2.25;2.00;;;;;13.39;71.78;100843.06;5033732;28;45413;-75
2022/01/03 14:46:35;;;;;;;;;2.50;2.00;;;;;13.57;71.94;100885.13;5032870;28;45500;-72
2022/01/03 14:49:01;;;;;;;;;5.25;1.75;;;;;13.56;71.28;100873.47;5021586;28;45908;-75
2022/01/03 14:51:53;;;;;;;;;3.75;2.25;;;;;13.61;72.20;100873.22;5026516;28;45327;-75
2022/01/03 14:54:25;;;;;;;;;3.75;1.25;;;;;13.60;72.59;100872.38;5022325;28;46049;-73
2022/01/03 14:56:53;;;;;;;;;3.75;1.75;;;;;13.39;71.98;100837.66;5033591;28;46204;-76
2022/01/03 14:59:27;;;;;;;;;4.25;3.00;;;;;13.44;72.99;100855.28;5033119;28;45615;-75
2022/01/03 15:01:55;;;;;;;;;2.00;1.50;;;;;13.35;73.38;100842.38;5033346;28;45497;-75
2022/01/03 15:04:23;;;;;;;;;1.75;1.75;;;;;13.47;72.76;100859.66;5033153;28;45382;-73
2022/01/03 15:06:50;;;;;;;;;5.25;2.50;;;;;13.30;73.29;100836.34;5037092;28;45443;-75
2022/01/03 15:09:16;;;;;;;;;3.00;1.50;;;;;13.36;74.21;100840.53;5031595;28;45587;-76
2022/01/03 15:11:41;;;;;;;;;4.25;1.75;;;;;13.34;73.14;100818.22;5033369;28;45421;-76
2022/01/03 15:14:07;;;;;;;;;2.50;2.00;;;;;13.43;72.86;100823.97;5031349;28;45780;-75
2022/01/03 15:16:33;;;;;;;;;2.25;1.00;;;;;13.41;73.93;100820.47;5023596;28;45328;-74
2022/01/03 15:18:58;;;;;;;;;6.25;3.00;;;;;13.32;73.74;100814.75;5032664;28;45342;-76
2022/01/03 15:21:24;;;;;;;;;3.50;1.50;;;;;13.25;73.94;100819.59;5024662;28;45287;-74
2022/01/03 15:23:49;;;;;;;;;8.00;2.00;;;;;13.26;73.91;100821.34;5033650;28;45533;-75
2022/01/03 15:26:15;;;;;;;;;4.00;2.00;;;;;13.18;74.37;100800.22;5033141;28;45494;-74
2022/01/03 15:28:41;;;;;;;;;4.00;2.25;;;;;13.27;73.64;100801.53;5036690;28;45436;-80
2022/01/03 15:31:06;;;;;;;;;6.00;2.00;;;;;13.32;74.12;100812.91;5035413;28;45424;-74
2022/01/03 15:33:32;;;;;;;;;6.50;2.50;;;;;13.33;74.50;100816.47;5020304;28;45643;-75
2022/01/03 15:35:58;;;;;;;;;3.75;2.00;;;;;13.30;74.96;100816.63;5022419;28;46055;-75
2022/01/03 15:38:25;;;;;;;;;2.00;2.00;;;;;13.22;75.57;100806.31;5026956;28;45403;-75
2022/01/03 15:40:51;;;;;;;;;3.50;1.00;;;;;13.19;75.36;100804.63;5022213;28;45603;-76
2022/01/03 15:43:17;;;;;;;;;2.75;2.50;;;;;13.19;75.32;100810.03;5024065;28;45636;-74
2022/01/03 15:45:43;;;;;;;;;6.00;3.75;;;;;13.17;75.17;100790.41;5023655;28;46172;-75
2022/01/03 15:48:09;;;;;;;;;1.75;1.50;;;;;13.14;76.18;100779.81;5026210;28;45374;-77
2022/01/03 15:50:35;;;;;;;;;5.25;2.75;;;;;13.18;76.00;100792.13;5023017;28;45381;-75
2022/01/03 15:53:02;;;;;;;;;2.00;1.00;;;;;13.16;75.44;100785.13;5023027;28;45236;-75
2022/01/03 15:55:28;;;;;;;;;1.00;1.00;;;;;13.21;75.67;100785.72;5020438;28;45608;-74
2022/01/03 15:57:54;;;;;;;;;4.00;2.00;;;;;13.08;76.02;100749.66;5025374;28;46331;-73
2022/01/03 16:00:19;;;;;;;;;4.75;2.00;;;;;13.23;76.21;100778.44;5029958;28;45413;-75
2022/01/03 16:02:44;;;;;;;;;2.00;2.00;;;;;13.08;77.13;100776.56;5033411;28;45390;-74
2022/01/03 16:05:10;;;;;;;;;3.50;3.50;;;;;12.79;76.73;100711.78;5034120;28;47458;-76
2022/01/03 16:07:35;;;;;;;;;10.25;4.00;;;;;13.01;77.18;100746.44;5036195;28;45696;-74
2022/01/03 16:10:01;;;;;;;;;5.00;3.75;;;;;12.88;77.01;100723.84;5032684;28;45835;-74
2022/01/03 16:12:27;;;;;;;;;3.50;1.25;;;;;12.99;76.45;100732.19;5032648;28;45520;-75
2022/01/03 16:14:52;;;;;;;;;2.50;2.50;;;;;12.97;76.63;100717.09;5031267;28;46382;-76
2022/01/03 16:17:19;;;;;;;;;3.50;3.00;;;;;13.13;76.85;100747.56;5043270;28;45426;-72
2022/01/03 16:19:45;;;;;;;;;8.50;2.75;;;;;12.98;76.93;100717.00;5031207;28;45503;-75
2022/01/03 16:22:11;;;;;;;;;4.50;3.50;;;;;12.98;77.36;100713.44;5031979;28;45276;-77
2022/01/03 16:24:36;;;;;;;;;5.00;2.75;;;;;13.08;77.81;100730.81;5032316;28;45561;-77
2022/01/03 16:27:02;;;;;;;;;2.25;1.25;;;;;12.98;77.52;100717.00;5032457;28;45379;-75
2022/01/03 16:29:27;;;;;;;;;2.25;1.00;;;;;12.87;78.02;100700.59;5032400;28;45364;-75
2022/01/03 16:31:53;;;;;;;;;4.00;3.00;;;;;12.80;78.36;100685.75;5032590;28;45447;-76
2022/01/03 16:34:19;;;;;;;;;4.75;2.00;;;;;12.83;78.77;100691.84;5033106;28;46042;-78
2022/01/03 16:36:44;;;;;;;;;2.50;2.25;;;;;12.98;78.83;100703.53;5037007;28;45367;-74
2022/01/03 16:39:10;;;;;;;;;1.50;1.00;;;;;13.00;78.31;100690.00;5035866;28;45406;-75
2022/01/03 16:41:36;;;;;;;;;3.00;2.50;;;;;13.04;78.61;100684.34;5035033;28;45400;-77
2022/01/03 16:44:06;;;;;;;;;4.00;2.75;;;;;12.95;79.09;100690.25;5034951;28;45452;-74
2022/01/03 16:46:33;;;;;;;;;3.00;2.50;;;;;12.86;79.36;100671.94;5035474;28;45366;-75
2022/01/03 16:48:58;;;;;;;;;2.25;0.50;;;;;12.70;79.11;100630.72;5035153;28;45461;-74
2022/01/03 16:51:24;;;;;;;;;3.00;2.00;;;;;12.87;79.33;100673.69;5034458;28;46725;-75
2022/01/03 16:53:49;;;;;;;;;5.50;2.00;;;;;12.77;79.16;100643.72;5035201;28;45430;-75
2022/01/03 16:56:15;;;;;;;;;1.50;1.50;;;;;12.81;79.24;100645.31;5046153;28;45352;-75
2022/01/03 16:58:41;;;;;;;;;2.75;2.00;;;;;12.74;79.00;100632.28;5036019;28;45400;-76
2022/01/03 17:01:07;;;;;;;;;2.00;2.00;;;;;12.85;78.89;100649.53;5035457;28;45539;-76
2022/01/03 17:03:33;;;;;;;;;1.75;1.00;;;;;12.80;79.13;100634.63;5036137;28;45406;-75
2022/01/03 17:05:59;;;;;;;;;1.50;0.50;;;;;12.83;79.02;100646.09;5036393;28;45748;-75
2022/01/03 17:08:24;;;;;;;;;0.50;0.50;;;;;12.87;79.23;100631.50;5038019;28;45768;-76
2022/01/03 17:10:50;;;;;;;;;2.00;2.00;;;;;12.81;79.32;100612.16;5036279;28;45574;-76
2022/01/03 17:13:16;;;;;;;;;1.75;1.00;;;;;12.90;79.62;100619.69;5035798;28;45413;-75
2022/01/03 17:15:41;;;;;;;;;3.00;3.00;;;;;12.91;79.08;100604.44;5035725;28;45418;-76
2022/01/03 17:18:07;;;;;;;;;4.00;4.00;;;;;13.02;79.16;100610.03;5026863;28;45306;-73
2022/01/03 17:20:35;;;;;;;;;2.00;2.00;;;;;13.01;78.99;100598.44;5022821;28;45607;-75